CheckWX is a tool to help pilots better visualize weather data.  It is not intended as a substitute for an official pre-flight weather briefing.

19:04:28 UTC

KTRI TAF
Tri-Cities Airport
Bristol/Johnson/Kingsport, Tennessee, USA
KTRI 201731Z 2018/2118 23004KT P6SM SCT018 OVC035 FM202100 00000KT P6SM BKN070 FM210300 00000KT P6SM BKN200 FM210400 00000KT P6SM SCT250

Nov-20@
18:00 UTC

Nov-20 @ 18:00 UTC

Nov-20@
21:00 UTC

Nov-20 @ 21:00 UTC

KTRI 201731Z 2018/2118 23004KT P6SM SCT018 OVC035
Wind
  • 230° at 4 KTS
Cloud Levels
  • Scattered at 1,800' AGL
  • Overcast at 3,500' AGL

Nov-20@
21:00 UTC

Nov-20 @ 21:00 UTC

Nov-21@
03:00 UTC

Nov-21 @ 03:00 UTC

FM202100 00000KT P6SM BKN070

From

From Standard forecast or significant change

Cloud Levels
  • Broken at 7,000' AGL

Nov-21@
03:00 UTC

Nov-21 @ 03:00 UTC

Nov-21@
04:00 UTC

Nov-21 @ 04:00 UTC

FM210300 00000KT P6SM BKN200

From

From Standard forecast or significant change

Cloud Levels
  • Broken at 20,000' AGL

Nov-21@
04:00 UTC

Nov-21 @ 04:00 UTC

Nov-21@
18:00 UTC

Nov-21 @ 18:00 UTC

FM210400 00000KT P6SM SCT250

From

From Standard forecast or significant change

Cloud Levels
  • Scattered at 25,000' AGL